createdAt,value
2022-10-13T00:00:47.678Z,100.00
2022-10-13T00:03:14.734Z,100.00
2022-10-13T00:05:49.362Z,100.00
2022-10-13T00:08:19.775Z,100.00
2022-10-13T00:10:48.500Z,100.00
2022-10-13T00:13:18.033Z,100.00
2022-10-13T00:15:46.493Z,100.00
2022-10-13T00:18:13.750Z,100.00
2022-10-13T00:20:45.555Z,100.00
2022-10-13T00:23:13.823Z,100.00
2022-10-13T00:25:42.389Z,100.00
2022-10-13T00:28:09.286Z,100.00
2022-10-13T00:30:38.862Z,100.00
2022-10-13T00:33:06.112Z,100.00
2022-10-13T00:35:33.255Z,100.00
2022-10-13T00:37:59.887Z,100.00
2022-10-13T00:40:30.791Z,100.00
2022-10-13T00:42:57.338Z,100.00
2022-10-13T00:45:24.971Z,100.00
2022-10-13T00:47:57.101Z,100.00
2022-10-13T00:50:33.585Z,100.00
2022-10-13T00:53:02.621Z,100.00
2022-10-13T00:55:36.055Z,100.00
2022-10-13T00:58:07.876Z,100.00
2022-10-13T01:00:35.219Z,100.00
2022-10-13T01:03:02.884Z,100.00
2022-10-13T01:05:30.251Z,100.00
2022-10-13T01:07:58.220Z,100.00
2022-10-13T01:10:36.939Z,100.00
2022-10-13T01:13:22.433Z,100.00
2022-10-13T01:15:57.652Z,100.00
2022-10-13T01:18:40.641Z,100.00
2022-10-13T01:21:09.906Z,100.00
2022-10-13T01:23:51.190Z,100.00
2022-10-13T01:26:54.293Z,100.00
2022-10-13T01:29:42.305Z,100.00
2022-10-13T01:32:35.874Z,100.00
2022-10-13T01:35:11.465Z,100.00
2022-10-13T01:37:47.087Z,100.00
2022-10-13T01:40:37.652Z,100.00
2022-10-13T01:43:13.815Z,100.00
2022-10-13T01:45:56.409Z,100.00
2022-10-13T01:48:25.297Z,100.00
2022-10-13T01:50:54.178Z,100.00
2022-10-13T01:53:21.499Z,100.00
2022-10-13T01:55:55.830Z,100.00
2022-10-13T01:58:25.033Z,100.00
2022-10-13T02:01:18.659Z,100.00
2022-10-13T02:04:20.817Z,100.00
2022-10-13T02:06:49.942Z,100.00
2022-10-13T02:09:25.901Z,100.00
2022-10-13T02:12:05.376Z,100.00
2022-10-13T02:14:36.628Z,100.00
2022-10-13T02:17:05.324Z,100.00
2022-10-13T02:19:37.571Z,100.00
2022-10-13T02:22:06.003Z,100.00
2022-10-13T02:24:32.980Z,100.00
2022-10-13T02:26:59.444Z,100.00
2022-10-13T02:29:25.884Z,100.00
2022-10-13T02:31:54.738Z,100.00
2022-10-13T02:34:21.223Z,100.00
2022-10-13T02:36:47.876Z,100.00
2022-10-13T02:39:14.543Z,100.00
2022-10-13T02:41:40.974Z,100.00
2022-10-13T02:44:07.531Z,100.00
2022-10-13T02:46:36.213Z,100.00
2022-10-13T02:49:02.747Z,100.00
2022-10-13T02:51:30.116Z,100.00
2022-10-13T02:53:56.547Z,100.00
2022-10-13T02:56:22.992Z,100.00
2022-10-13T02:58:49.486Z,100.00
2022-10-13T03:01:16.177Z,100.00
2022-10-13T03:03:43.368Z,100.00
2022-10-13T03:06:09.875Z,100.00
2022-10-13T03:08:36.341Z,100.00
2022-10-13T03:11:03.263Z,100.00
2022-10-13T03:13:30.106Z,100.00
2022-10-13T03:16:04.361Z,100.00
2022-10-13T03:18:30.804Z,100.00
2022-10-13T03:21:07.057Z,100.00
2022-10-13T03:23:36.697Z,100.00
2022-10-13T03:26:04.484Z,100.00
2022-10-13T03:28:31.115Z,100.00
2022-10-13T03:31:06.066Z,100.00
2022-10-13T03:33:32.761Z,100.00
2022-10-13T03:36:04.388Z,100.00
2022-10-13T03:38:32.414Z,100.00
2022-10-13T03:41:05.230Z,100.00
2022-10-13T03:43:31.851Z,100.00
2022-10-13T03:45:59.422Z,100.00
2022-10-13T03:48:26.702Z,100.00
2022-10-13T03:50:53.250Z,100.00
2022-10-13T03:53:20.069Z,100.00
2022-10-13T03:55:50.928Z,100.00
2022-10-13T03:58:17.743Z,100.00
2022-10-13T04:00:46.013Z,100.00
2022-10-13T04:03:12.679Z,100.00
2022-10-13T04:05:39.324Z,100.00
2022-10-13T04:08:05.884Z,100.00
2022-10-13T04:10:32.709Z,100.00
2022-10-13T04:12:59.804Z,100.00
2022-10-13T04:15:26.940Z,100.00
2022-10-13T04:17:53.404Z,100.00
2022-10-13T04:20:19.841Z,100.00
2022-10-13T04:22:46.326Z,100.00
2022-10-13T04:25:12.705Z,100.00
2022-10-13T04:27:39.521Z,100.00
2022-10-13T04:30:06.899Z,100.00
2022-10-13T04:32:33.626Z,100.00
2022-10-13T04:35:02.852Z,100.00
2022-10-13T04:37:29.354Z,100.00
2022-10-13T04:39:55.740Z,100.00
2022-10-13T04:42:22.724Z,100.00
2022-10-13T04:44:49.419Z,100.00
2022-10-13T04:47:20.811Z,100.00
2022-10-13T04:49:47.287Z,100.00
2022-10-13T04:52:14.117Z,100.00
2022-10-13T04:54:40.645Z,100.00
2022-10-13T04:58:12.197Z,100.00
2022-10-13T05:00:38.697Z,100.00
2022-10-13T05:03:05.218Z,100.00
2022-10-13T05:05:35.107Z,100.00
2022-10-13T05:08:02.606Z,100.00
2022-10-13T05:10:33.871Z,100.00
2022-10-13T05:13:01.282Z,100.00
2022-10-13T05:15:27.649Z,100.00
2022-10-13T05:17:54.212Z,100.00
2022-10-13T05:20:20.706Z,100.00
2022-10-13T05:22:47.200Z,100.00
2022-10-13T05:25:13.737Z,100.00
2022-10-13T05:27:40.214Z,100.00
2022-10-13T05:30:09.624Z,100.00
2022-10-13T05:32:36.119Z,100.00
2022-10-13T05:35:02.601Z,100.00
2022-10-13T05:37:29.254Z,100.00
2022-10-13T05:39:55.700Z,100.00
2022-10-13T05:42:22.456Z,100.00
2022-10-13T05:44:49.230Z,100.00
2022-10-13T05:47:15.640Z,100.00
2022-10-13T05:49:44.815Z,100.00
2022-10-13T05:52:12.019Z,100.00
2022-10-13T05:54:48.572Z,100.00
2022-10-13T05:57:21.157Z,100.00
2022-10-13T05:59:54.889Z,100.00
2022-10-13T06:02:24.772Z,100.00
2022-10-13T06:04:55.854Z,100.00
2022-10-13T06:07:22.414Z,100.00
2022-10-13T06:09:49.651Z,100.00
2022-10-13T06:12:16.215Z,100.00
2022-10-13T06:14:42.613Z,100.00
2022-10-13T06:17:11.382Z,100.00
2022-10-13T06:19:38.407Z,100.00
2022-10-13T06:22:08.422Z,100.00
2022-10-13T06:24:34.981Z,100.00
2022-10-13T06:27:03.582Z,100.00
2022-10-13T06:29:30.203Z,100.00
2022-10-13T06:31:56.594Z,100.00
2022-10-13T06:34:23.120Z,100.00
2022-10-13T06:36:49.551Z,100.00
2022-10-13T06:39:16.068Z,100.00
2022-10-13T06:41:42.484Z,100.00
2022-10-13T06:44:09.190Z,100.00
2022-10-13T06:46:35.706Z,100.00
2022-10-13T06:49:02.286Z,100.00
2022-10-13T06:51:29.247Z,100.00
2022-10-13T06:53:56.759Z,100.00
2022-10-13T06:56:25.487Z,100.00
2022-10-13T06:58:51.951Z,100.00
2022-10-13T07:01:18.503Z,100.00
2022-10-13T07:03:47.845Z,100.00
2022-10-13T07:06:14.356Z,100.00
2022-10-13T07:08:40.896Z,100.00
2022-10-13T07:11:15.313Z,100.00
2022-10-13T07:13:46.257Z,100.00
2022-10-13T07:16:15.755Z,100.00
2022-10-13T07:18:42.424Z,100.00
2022-10-13T07:21:09.498Z,100.00
2022-10-13T07:23:35.980Z,100.00
2022-10-13T07:26:07.375Z,100.00
2022-10-13T07:28:34.051Z,100.00
2022-10-13T07:31:00.645Z,100.00
2022-10-13T07:33:27.386Z,100.00
2022-10-13T07:35:53.802Z,100.00
2022-10-13T07:38:20.342Z,100.00
2022-10-13T07:40:47.859Z,100.00
2022-10-13T07:43:14.316Z,100.00
2022-10-13T07:45:40.885Z,100.00
2022-10-13T07:48:07.325Z,100.00
2022-10-13T07:50:33.955Z,100.00
2022-10-13T07:53:00.575Z,100.00
2022-10-13T07:55:27.404Z,100.00
2022-10-13T07:57:54.055Z,100.00
2022-10-13T08:00:20.777Z,100.00
2022-10-13T08:02:51.040Z,100.00
2022-10-13T08:05:17.944Z,100.00
2022-10-13T08:07:44.489Z,100.00
2022-10-13T08:10:11.061Z,100.00
2022-10-13T08:12:37.893Z,100.00
2022-10-13T08:15:06.718Z,100.00
2022-10-13T08:17:33.419Z,100.00
2022-10-13T08:19:59.884Z,100.00
2022-10-13T08:22:28.552Z,100.00
2022-10-13T08:24:55.977Z,100.00
2022-10-13T08:27:32.840Z,100.00
2022-10-13T08:30:09.690Z,100.00
2022-10-13T08:32:36.292Z,100.00
2022-10-13T08:35:04.336Z,100.00
2022-10-13T08:37:30.948Z,100.00
2022-10-13T08:39:57.471Z,97.14
2022-10-13T08:42:23.959Z,94.96
2022-10-13T08:45:39.981Z,97.51
2022-10-13T08:48:07.463Z,96.29
2022-10-13T08:50:39.325Z,98.07
2022-10-13T08:53:33.255Z,95.78
2022-10-13T08:56:15.163Z,97.48
2022-10-13T08:58:45.232Z,98.25
2022-10-13T09:01:18.510Z,97.69
2022-10-13T09:04:11.988Z,96.81
2022-10-13T09:06:45.072Z,96.00
2022-10-13T09:09:14.362Z,95.44
2022-10-13T09:11:44.658Z,95.74
2022-10-13T09:14:22.299Z,96.49
2022-10-13T09:16:49.499Z,95.96
2022-10-13T09:19:25.131Z,96.56
2022-10-13T09:21:57.595Z,95.08
2022-10-13T09:24:26.391Z,93.86
2022-10-13T09:27:05.510Z,96.13
2022-10-13T09:29:32.357Z,95.09
2022-10-13T09:32:21.079Z,95.07
2022-10-13T09:34:48.477Z,95.27
2022-10-13T09:37:25.609Z,94.03
2022-10-13T09:40:11.916Z,95.66
2022-10-13T09:42:38.751Z,95.36
2022-10-13T09:45:21.331Z,95.10
2022-10-13T09:47:57.831Z,95.02
2022-10-13T09:50:27.025Z,95.02
2022-10-13T09:52:54.316Z,94.35
2022-10-13T09:55:34.920Z,96.32
2022-10-13T09:58:24.508Z,96.89
2022-10-13T10:00:53.307Z,96.63
2022-10-13T10:03:29.321Z,96.71
2022-10-13T10:06:01.746Z,94.79
2022-10-13T10:09:01.678Z,94.60
2022-10-13T10:11:30.540Z,95.56
2022-10-13T10:13:57.639Z,94.81
2022-10-13T10:32:42.801Z,97.24
2022-10-13T10:35:21.053Z,97.32
2022-10-13T10:38:20.462Z,98.90
2022-10-13T10:40:56.324Z,95.59
2022-10-13T10:43:43.216Z,95.83
2022-10-13T10:46:22.541Z,95.68
2022-10-13T10:48:53.949Z,94.81
2022-10-13T10:51:25.326Z,92.30
2022-10-13T10:54:23.802Z,91.51
2022-10-13T10:57:16.197Z,90.45
2022-10-13T11:00:10.223Z,88.11
2022-10-13T11:03:01.687Z,85.50
2022-10-13T11:06:20.866Z,88.71
2022-10-13T11:08:49.326Z,86.15
2022-10-13T11:11:24.688Z,87.41
2022-10-13T11:13:59.713Z,87.77
2022-10-13T11:16:31.253Z,87.98
2022-10-13T11:19:19.927Z,87.36
2022-10-13T11:21:52.444Z,88.13
2022-10-13T11:24:33.907Z,89.33
2022-10-13T11:27:10.625Z,90.92
2022-10-13T11:29:46.616Z,89.31
2022-10-13T11:32:30.489Z,88.76
2022-10-13T11:35:06.142Z,87.98
2022-10-13T11:38:08.774Z,88.70
2022-10-13T11:40:58.977Z,88.17
2022-10-13T11:43:40.842Z,87.80
2022-10-13T11:46:21.921Z,87.96
2022-10-13T11:49:16.771Z,88.24
2022-10-13T11:52:02.121Z,86.62
2022-10-13T11:54:54.713Z,87.88
2022-10-13T11:57:24.322Z,87.00
2022-10-13T11:59:55.382Z,87.26
2022-10-13T12:02:48.312Z,86.48
2022-10-13T12:05:25.514Z,87.68
2022-10-13T12:07:55.519Z,86.42
2022-10-13T12:10:31.607Z,85.11
2022-10-13T12:13:01.014Z,87.35
2022-10-13T12:15:37.916Z,86.22
2022-10-13T12:18:21.430Z,85.81
2022-10-13T12:20:56.236Z,85.75
2022-10-13T12:23:22.741Z,83.34
2022-10-13T12:25:56.508Z,85.91
2022-10-13T12:28:25.865Z,85.82
2022-10-13T12:30:58.582Z,84.09
2022-10-13T12:33:35.314Z,84.10
2022-10-13T12:36:18.774Z,82.17
2022-10-13T12:38:54.015Z,82.06
2022-10-13T12:41:30.538Z,84.72
2022-10-13T12:44:01.044Z,83.99
2022-10-13T12:46:47.684Z,84.11
2022-10-13T12:49:17.136Z,84.23
2022-10-13T12:51:46.575Z,85.24
2022-10-13T12:54:24.393Z,83.57
2022-10-13T12:56:56.395Z,82.40
2022-10-13T12:59:24.556Z,83.48
2022-10-13T13:01:57.010Z,83.59
2022-10-13T13:04:38.331Z,80.29
2022-10-13T13:07:06.612Z,80.88
2022-10-13T13:09:35.547Z,80.23
2022-10-13T13:12:21.841Z,79.41
2022-10-13T13:14:52.375Z,80.96
2022-10-13T13:17:38.504Z,79.50
2022-10-13T13:20:21.751Z,80.07
2022-10-13T13:22:48.423Z,81.15
2022-10-13T13:25:15.086Z,79.48
2022-10-13T13:27:41.522Z,80.09
2022-10-13T13:30:12.910Z,80.28
2022-10-13T13:32:39.706Z,79.31
2022-10-13T13:35:07.688Z,79.02
2022-10-13T13:37:37.334Z,79.68
2022-10-13T13:40:05.793Z,79.41
2022-10-13T13:42:32.561Z,80.58
2022-10-13T13:44:59.101Z,79.69
2022-10-13T13:47:26.733Z,80.21
2022-10-13T13:49:54.633Z,79.29
2022-10-13T13:52:21.971Z,79.78
2022-10-13T13:54:49.458Z,79.30
2022-10-13T13:57:16.407Z,80.09
2022-10-13T13:59:43.316Z,80.78
2022-10-13T14:02:21.256Z,79.93
2022-10-13T14:04:47.925Z,80.97
2022-10-13T14:07:14.579Z,78.85
2022-10-13T14:09:41.021Z,81.21
2022-10-13T14:12:09.521Z,80.35
2022-10-13T14:14:36.003Z,81.02
2022-10-13T14:17:03.710Z,80.18
2022-10-13T14:19:33.448Z,81.90
2022-10-13T14:22:03.704Z,81.49
2022-10-13T14:24:33.662Z,81.46
2022-10-13T14:27:02.114Z,81.58
2022-10-13T14:29:28.553Z,81.95
2022-10-13T14:31:54.988Z,80.91
2022-10-13T14:34:21.643Z,81.75
2022-10-13T14:36:48.120Z,83.58
2022-10-13T14:39:15.364Z,82.17
2022-10-13T14:41:41.874Z,82.56
2022-10-13T14:44:11.493Z,82.27
2022-10-13T14:46:40.413Z,83.05
2022-10-13T14:49:06.893Z,82.46
2022-10-13T14:51:34.881Z,82.71
2022-10-13T14:54:02.673Z,84.37
2022-10-13T14:56:30.319Z,83.08
2022-10-13T14:59:00.645Z,83.46
2022-10-13T15:01:35.919Z,83.51
2022-10-13T15:04:03.380Z,83.62
2022-10-13T15:06:30.997Z,82.67
2022-10-13T15:08:57.722Z,83.55
2022-10-13T15:11:25.871Z,84.09
2022-10-13T15:13:52.822Z,84.30
2022-10-13T15:16:24.360Z,85.85
2022-10-13T15:18:51.154Z,85.64
2022-10-13T15:21:18.566Z,85.55
2022-10-13T15:23:45.432Z,85.62
2022-10-13T15:26:13.653Z,86.36
2022-10-13T15:28:43.507Z,86.68
2022-10-13T15:31:11.762Z,86.42
2022-10-13T15:33:38.766Z,87.65
2022-10-13T15:36:05.341Z,88.32
2022-10-13T15:38:31.845Z,87.84
2022-10-13T15:41:03.556Z,86.92
2022-10-13T15:43:30.294Z,87.12
2022-10-13T15:46:02.823Z,87.99
2022-10-13T15:48:29.442Z,88.48
2022-10-13T15:50:55.842Z,89.12
2022-10-13T15:53:22.712Z,89.77
2022-10-13T15:55:49.455Z,89.76
2022-10-13T15:58:16.595Z,89.89
2022-10-13T16:00:43.592Z,90.32
2022-10-13T16:03:15.173Z,90.13
2022-10-13T16:05:43.203Z,91.10
2022-10-13T16:08:11.086Z,91.12
2022-10-13T16:10:43.926Z,91.34
2022-10-13T16:13:14.957Z,91.54
2022-10-13T16:15:42.707Z,92.16
2022-10-13T16:18:09.328Z,92.93
2022-10-13T16:20:37.825Z,92.93
2022-10-13T16:23:04.820Z,93.86
2022-10-13T16:25:31.988Z,94.06
2022-10-13T16:27:59.384Z,94.09
2022-10-13T16:30:25.911Z,95.22
2022-10-13T16:32:52.239Z,95.09
2022-10-13T16:35:18.669Z,94.97
2022-10-13T16:37:45.104Z,95.65
2022-10-13T16:40:11.558Z,96.44
2022-10-13T16:42:38.079Z,96.11
2022-10-13T16:45:04.788Z,96.27
2022-10-13T16:47:31.249Z,96.34
2022-10-13T16:49:57.647Z,96.85
2022-10-13T16:52:24.107Z,96.42
2022-10-13T16:54:51.724Z,97.13
2022-10-13T16:57:18.410Z,97.50
2022-10-13T16:59:48.855Z,98.22
2022-10-13T17:02:15.474Z,98.28
2022-10-13T17:04:43.175Z,98.86
2022-10-13T17:07:09.664Z,99.42
2022-10-13T17:09:36.164Z,98.50
2022-10-13T17:12:02.788Z,98.15
2022-10-13T17:14:29.175Z,98.73
2022-10-13T17:16:58.019Z,99.76
2022-10-13T17:19:25.101Z,100.00
2022-10-13T17:21:51.545Z,100.00
2022-10-13T17:24:18.299Z,100.00
2022-10-13T17:26:44.756Z,100.00
2022-10-13T17:29:11.367Z,100.00
2022-10-13T17:31:37.985Z,100.00
2022-10-13T17:34:06.030Z,100.00
2022-10-13T17:36:34.097Z,100.00
2022-10-13T17:39:09.119Z,100.00
2022-10-13T17:41:40.140Z,100.00
2022-10-13T17:44:06.688Z,100.00
2022-10-13T17:46:38.362Z,100.00
2022-10-13T17:49:07.863Z,100.00
2022-10-13T17:51:34.913Z,100.00
2022-10-13T17:54:02.381Z,100.00
2022-10-13T17:56:29.329Z,100.00
2022-10-13T17:58:56.690Z,100.00
2022-10-13T18:01:27.376Z,100.00
2022-10-13T18:03:57.065Z,100.00
2022-10-13T18:06:37.927Z,100.00
2022-10-13T18:09:11.193Z,100.00
2022-10-13T18:11:38.624Z,100.00
2022-10-13T18:14:06.127Z,100.00
2022-10-13T18:16:32.871Z,100.00
2022-10-13T18:18:59.354Z,100.00
2022-10-13T18:21:29.388Z,100.00
2022-10-13T18:23:58.369Z,100.00
2022-10-13T18:26:26.743Z,100.00
2022-10-13T18:28:53.864Z,100.00
2022-10-13T18:31:29.946Z,100.00
2022-10-13T18:34:01.268Z,100.00
2022-10-13T18:36:35.178Z,100.00
2022-10-13T18:39:08.233Z,100.00
2022-10-13T18:41:36.699Z,100.00
2022-10-13T18:44:04.042Z,100.00
2022-10-13T18:46:31.330Z,100.00
2022-10-13T18:48:58.331Z,100.00
2022-10-13T18:51:26.245Z,100.00
2022-10-13T18:53:52.711Z,100.00
2022-10-13T18:56:23.488Z,100.00
2022-10-13T18:58:55.682Z,100.00
2022-10-13T19:01:26.609Z,100.00
2022-10-13T19:03:54.384Z,100.00
2022-10-13T19:06:26.558Z,100.00
2022-10-13T19:08:58.487Z,100.00
2022-10-13T19:11:25.104Z,100.00
2022-10-13T19:13:51.749Z,100.00
2022-10-13T19:16:20.783Z,100.00
2022-10-13T19:18:48.591Z,100.00
2022-10-13T19:21:15.093Z,100.00
2022-10-13T19:23:42.114Z,100.00
2022-10-13T19:26:29.708Z,100.00
2022-10-13T19:28:58.928Z,100.00
2022-10-13T19:31:27.500Z,100.00
2022-10-13T19:33:55.640Z,100.00
2022-10-13T19:36:33.731Z,100.00
2022-10-13T19:39:01.670Z,100.00
2022-10-13T19:41:30.734Z,100.00
2022-10-13T19:43:58.567Z,100.00
2022-10-13T19:46:34.729Z,100.00
2022-10-13T19:49:02.256Z,100.00
2022-10-13T19:51:28.739Z,100.00
2022-10-13T19:53:55.272Z,100.00
2022-10-13T19:56:26.095Z,100.00
2022-10-13T19:58:53.620Z,100.00
2022-10-13T20:01:22.428Z,100.00
2022-10-13T20:03:49.890Z,100.00
2022-10-13T20:06:17.624Z,100.00
2022-10-13T20:08:45.114Z,100.00
2022-10-13T20:11:15.161Z,100.00
2022-10-13T20:13:45.170Z,100.00
2022-10-13T20:16:14.318Z,100.00
2022-10-13T20:18:41.439Z,100.00
2022-10-13T20:21:10.853Z,100.00
2022-10-13T20:23:37.716Z,100.00
2022-10-13T20:26:07.768Z,100.00
2022-10-13T20:28:39.241Z,100.00
2022-10-13T20:31:09.196Z,100.00
2022-10-13T20:33:36.066Z,100.00
2022-10-13T20:36:05.343Z,100.00
2022-10-13T20:38:35.350Z,100.00
2022-10-13T20:41:25.968Z,100.00
2022-10-13T20:43:54.542Z,100.00
2022-10-13T20:46:21.899Z,100.00
2022-10-13T20:49:09.845Z,100.00
2022-10-13T20:51:35.652Z,100.00
2022-10-13T20:54:02.041Z,100.00
2022-10-13T20:56:28.510Z,100.00
2022-10-13T20:58:55.078Z,100.00
2022-10-13T21:01:22.705Z,100.00
2022-10-13T21:03:52.926Z,100.00
2022-10-13T21:06:19.640Z,100.00
2022-10-13T21:08:47.087Z,100.00
2022-10-13T21:11:15.634Z,100.00
2022-10-13T21:13:43.689Z,100.00
2022-10-13T21:16:18.496Z,100.00
2022-10-13T21:18:48.109Z,100.00
2022-10-13T21:21:23.123Z,100.00
2022-10-13T21:23:56.284Z,100.00
2022-10-13T21:26:24.654Z,100.00
2022-10-13T21:28:51.998Z,100.00
2022-10-13T21:31:21.366Z,100.00
2022-10-13T21:33:48.360Z,100.00
2022-10-13T21:36:17.586Z,100.00
2022-10-13T21:38:46.246Z,100.00
2022-10-13T21:41:14.456Z,100.00
2022-10-13T21:43:41.213Z,100.00
2022-10-13T21:46:20.048Z,100.00
2022-10-13T21:48:54.018Z,100.00
2022-10-13T21:51:24.717Z,100.00
2022-10-13T21:53:56.433Z,100.00
2022-10-13T21:56:24.230Z,100.00
2022-10-13T21:58:50.723Z,100.00
2022-10-13T22:17:30.536Z,100.00
2022-10-13T22:19:57.021Z,100.00
2022-10-13T22:22:26.381Z,100.00
2022-10-13T22:24:55.154Z,100.00
2022-10-13T22:27:21.940Z,100.00
2022-10-13T22:29:48.686Z,100.00
2022-10-13T22:32:15.169Z,100.00
2022-10-13T22:34:41.632Z,100.00
2022-10-13T22:37:08.091Z,100.00
2022-10-13T22:39:34.701Z,100.00
2022-10-13T22:42:07.912Z,100.00
2022-10-13T22:44:34.297Z,100.00
2022-10-13T22:47:00.749Z,100.00
2022-10-13T22:49:27.273Z,100.00
2022-10-13T22:51:53.621Z,100.00
2022-10-13T22:54:20.082Z,100.00
2022-10-13T22:56:46.493Z,100.00
2022-10-13T22:59:13.880Z,100.00
2022-10-13T23:01:40.533Z,100.00
2022-10-13T23:04:06.992Z,100.00
2022-10-13T23:06:34.960Z,100.00
2022-10-13T23:09:04.612Z,100.00
2022-10-13T23:11:31.064Z,100.00
2022-10-13T23:14:00.917Z,100.00
2022-10-13T23:16:28.081Z,100.00
2022-10-13T23:18:54.563Z,100.00
2022-10-13T23:21:27.378Z,100.00
2022-10-13T23:23:55.838Z,100.00
2022-10-13T23:26:22.819Z,100.00
2022-10-13T23:28:49.459Z,100.00
2022-10-13T23:31:17.535Z,100.00
2022-10-13T23:33:44.794Z,100.00
2022-10-13T23:36:19.217Z,100.00
2022-10-13T23:38:54.874Z,100.00
2022-10-13T23:41:21.380Z,100.00
2022-10-13T23:43:48.170Z,100.00
2022-10-13T23:46:14.748Z,100.00
2022-10-13T23:48:41.381Z,100.00
2022-10-13T23:51:12.726Z,100.00
2022-10-13T23:53:40.104Z,100.00
2022-10-13T23:56:08.390Z,100.00
2022-10-13T23:58:39.519Z,100.00
